^^
Saratoga-Weather Station Historical Data
Daily Summary for March 26, 2021 Units:  Metric    English   Both
Daily Weekly Monthly Yearly Custom
  High: Low: Average:
Temperature: 1 °C -0.2 °C 0.5 °C
Dew Point: -0.4 °C -1.3 °C -0.8 °C
Humidity: 92% 90% 91%
Wind Speed: 19.5km/h 1.4km/h 8.5km/h
Wind Gust: 27.4km/h - -
Wind- - West
Pressure: 1019.6 hPa 1014.9 hPa -
Precipitation: 0.0 mm    
Historical Graphs
 
 
Tabular Data for March 26, 2021
Time Temperature Dew Point Pressure Wind Wind Speed Wind Gust Humidity Rainfall Rate (Hourly) solar
00:03 0 °C -1.1 °C 1014.9 hPa West 6.4 km/h 12.9 km/h 92% 0.0 mm 0 W/m2
00:08 0.1 °C -1 °C 1014.9 hPa West 9.7 km/h 14.5 km/h 92% 0.0 mm 0 W/m2
00:13 0.2 °C -0.9 °C 1014.9 hPa WNW 7.9 km/h 14.5 km/h 92% 0.0 mm 0 W/m2
00:18 0.2 °C -0.9 °C 1014.9 hPa WSW 4.7 km/h 14.5 km/h 92% 0.0 mm 0 W/m2
00:23 0.2 °C -0.9 °C 1015.2 hPa WSW 3.2 km/h 16.1 km/h 92% 0.0 mm 0 W/m2
00:28 0.2 °C -0.9 °C 1014.9 hPa West 3.2 km/h 6.4 km/h 92% 0.0 mm 0 W/m2
00:33 0.2 °C -1.1 °C 1015.2 hPa WSW 1.4 km/h 6.4 km/h 91% 0.0 mm 0 W/m2
00:38 0.2 °C -1.1 °C 1015.2 hPa WNW 4.7 km/h 9.7 km/h 91% 0.0 mm 0 W/m2
00:43 0.1 °C -1.2 °C 1015.2 hPa WSW 4.7 km/h 12.9 km/h 91% 0.0 mm 0 W/m2
00:48 0.2 °C -0.9 °C 1015.2 hPa WSW 1.4 km/h 11.3 km/h 92% 0.0 mm 0 W/m2
00:53 0.2 °C -0.9 °C 1015.2 hPa SW 1.4 km/h 11.3 km/h 92% 0.0 mm 0 W/m2
00:58 0.2 °C -1.1 °C 1015.2 hPa WNW 6.4 km/h 9.7 km/h 91% 0.0 mm 0 W/m2
01:03 0.3 °C -0.8 °C 1015.2 hPa West 1.4 km/h 16.1 km/h 92% 0.0 mm 0 W/m2
01:08 0.3 °C -0.8 °C 1015.2 hPa SW 6.4 km/h 12.9 km/h 92% 0.0 mm 0 W/m2
01:13 0.4 °C -0.9 °C 1015.2 hPa WSW 6.4 km/h 16.1 km/h 91% 0.0 mm 0 W/m2
01:18 0.5 °C -0.8 °C 1015.2 hPa North 3.2 km/h 3.2 km/h 91% 0.0 mm 0 W/m2
01:23 0.6 °C -0.7 °C 1015.2 hPa WNW 6.4 km/h 14.5 km/h 91% 0.0 mm 0 W/m2
01:28 0.6 °C -0.7 °C 1015.2 hPa WSW 4.7 km/h 12.9 km/h 91% 0.0 mm 0 W/m2
01:33 0.6 °C -0.7 °C 1015.2 hPa WSW 4.7 km/h 14.5 km/h 91% 0.0 mm 0 W/m2
01:38 0.7 °C -0.6 °C 1015.2 hPa West 4.7 km/h 9.7 km/h 91% 0.0 mm 0 W/m2
01:43 0.7 °C -0.6 °C 1015.2 hPa West 6.4 km/h 16.1 km/h 91% 0.0 mm 0 W/m2
01:48 0.7 °C -0.6 °C 1015.2 hPa WSW 1.4 km/h 12.9 km/h 91% 0.0 mm 0 W/m2
01:53 0.7 °C -0.6 °C 1015.2 hPa NW 4.7 km/h 20.9 km/h 91% 0.0 mm 0 W/m2
01:58 0.7 °C -0.6 °C 1015.2 hPa South 6.4 km/h 16.1 km/h 91% 0.0 mm 0 W/m2
02:03 0.7 °C -0.6 °C 1015.2 hPa WSW 6.4 km/h 20.9 km/h 91% 0.0 mm 0 W/m2
02:08 0.7 °C -0.6 °C 1015.2 hPa West 6.4 km/h 17.7 km/h 91% 0.0 mm 0 W/m2
02:13 0.7 °C -0.6 °C 1015.6 hPa West 14.3 km/h 16.1 km/h 91% 0.0 mm 0 W/m2
02:18 0.8 °C -0.5 °C 1015.6 hPa West 4.7 km/h 11.3 km/h 91% 0.0 mm 0 W/m2
02:23 0.7 °C -0.6 °C 1015.6 hPa WSW 1.4 km/h 11.3 km/h 91% 0.0 mm 0 W/m2
02:28 0.7 °C -0.6 °C 1015.6 hPa WSW 6.4 km/h 17.7 km/h 91% 0.0 mm 0 W/m2
02:33 0.7 °C -0.6 °C 1015.6 hPa NW 3.2 km/h 12.9 km/h 91% 0.0 mm 0 W/m2
02:38 0.7 °C -0.6 °C 1015.6 hPa WSW 6.4 km/h 17.7 km/h 91% 0.0 mm 0 W/m2
02:43 0.7 °C -0.6 °C 1015.6 hPa WSW 4.7 km/h 19.3 km/h 91% 0.0 mm 0 W/m2
02:48 0.7 °C -0.8 °C 1015.9 hPa North 1.4 km/h 14.5 km/h 90% 0.0 mm 0 W/m2
02:53 0.7 °C -0.6 °C 1015.9 hPa WNW 4.7 km/h 9.7 km/h 91% 0.0 mm 0 W/m2
02:58 0.7 °C -0.8 °C 1016.3 hPa WNW 13 km/h 14.5 km/h 90% 0.0 mm 0 W/m2
03:03 0.8 °C -0.7 °C 1015.9 hPa WNW 6.4 km/h 9.7 km/h 90% 0.0 mm 0 W/m2
03:08 0.8 °C -0.7 °C 1016.3 hPa WSW 9.7 km/h 12.9 km/h 90% 0.0 mm 0 W/m2
03:13 0.8 °C -0.7 °C 1016.3 hPa WSW 6.4 km/h 17.7 km/h 90% 0.0 mm 0 W/m2
03:18 0.9 °C -0.6 °C 1016.3 hPa West 3.2 km/h 11.3 km/h 90% 0.0 mm 0 W/m2
03:23 0.9 °C -0.6 °C 1016.3 hPa WSW 7.9 km/h 16.1 km/h 90% 0.0 mm 0 W/m2
03:28 0.9 °C -0.6 °C 1015.9 hPa West 6.4 km/h 8 km/h 90% 0.0 mm 0 W/m2
03:33 0.9 °C -0.6 °C 1015.9 hPa WSW 6.4 km/h 16.1 km/h 90% 0.0 mm 0 W/m2
03:38 1 °C -0.5 °C 1016.3 hPa WNW 6.4 km/h 11.3 km/h 90% 0.0 mm 0 W/m2
03:43 1 °C -0.5 °C 1016.3 hPa WSW 4.7 km/h 12.9 km/h 90% 0.0 mm 0 W/m2
03:48 1 °C -0.5 °C 1016.3 hPa West 11.1 km/h 11.3 km/h 90% 0.0 mm 0 W/m2
03:53 1 °C -0.5 °C 1016.3 hPa West 9.7 km/h 16.1 km/h 90% 0.0 mm 0 W/m2
03:58 1 °C -0.5 °C 1016.3 hPa West 11.1 km/h 14.5 km/h 90% 0.0 mm 0 W/m2
04:03 0.9 °C -0.4 °C 1016.3 hPa WSW 4.7 km/h 14.5 km/h 91% 0.0 mm 0 W/m2
04:08 0.9 °C -0.4 °C 1016.3 hPa West 6.4 km/h 14.5 km/h 91% 0.0 mm 0 W/m2
04:13 0.9 °C -0.4 °C 1016.3 hPa WNW 11.1 km/h 16.1 km/h 91% 0.0 mm 0 W/m2
04:18 0.9 °C -0.4 °C 1016.3 hPa WNW 14.3 km/h 16.1 km/h 91% 0.0 mm 0 W/m2
04:23 0.9 °C -0.4 °C 1016.3 hPa WSW 4.7 km/h 14.5 km/h 91% 0.0 mm 0 W/m2
04:28 0.8 °C -0.5 °C 1016.6 hPa West 16.3 km/h 20.9 km/h 91% 0.0 mm 0 W/m2
04:33 0.8 °C -0.5 °C 1016.6 hPa West 13 km/h 17.7 km/h 91% 0.0 mm 0 W/m2
04:38 0.8 °C -0.5 °C 1016.6 hPa West 3.2 km/h 20.9 km/h 91% 0.0 mm 0 W/m2
04:43 0.8 °C -0.5 °C 1016.6 hPa West 14.3 km/h 14.5 km/h 91% 0.0 mm 0 W/m2
04:48 0.8 °C -0.5 °C 1016.6 hPa South 6.4 km/h 17.7 km/h 91% 0.0 mm 0 W/m2
04:53 0.7 °C -0.6 °C 1016.6 hPa WSW 7.9 km/h 14.5 km/h 91% 0.0 mm 0 W/m2
04:58 0.7 °C -0.6 °C 1016.9 hPa WSW 13 km/h 20.9 km/h 91% 0.0 mm 0 W/m2
05:03 0.7 °C -0.6 °C 1016.9 hPa West 9.7 km/h 11.3 km/h 91% 0.0 mm 0 W/m2
05:08 0.7 °C -0.6 °C 1016.9 hPa West 11.1 km/h 12.9 km/h 91% 0.0 mm 0 W/m2
05:13 0.7 °C -0.6 °C 1016.9 hPa West 9.7 km/h 16.1 km/h 91% 0.0 mm 0 W/m2
05:18 0.8 °C -0.5 °C 1016.9 hPa West 1.4 km/h 16.1 km/h 91% 0.0 mm 0 W/m2
05:23 0.8 °C -0.5 °C 1016.9 hPa West 6.4 km/h 17.7 km/h 91% 0.0 mm 0 W/m2
05:28 0.8 °C -0.5 °C 1017.3 hPa WSW 16.3 km/h 17.7 km/h 91% 0.0 mm 0 W/m2
05:33 0.8 °C -0.5 °C 1017.3 hPa WSW 7.9 km/h 12.9 km/h 91% 0.0 mm 0 W/m2
05:38 0.9 °C -0.4 °C 1017.3 hPa West 9.7 km/h 17.7 km/h 91% 0.0 mm 0 W/m2
05:43 0.9 °C -0.6 °C 1017.6 hPa West 13 km/h 19.3 km/h 90% 0.0 mm 0 W/m2
05:48 0.8 °C -0.7 °C 1017.6 hPa WSW 7.9 km/h 27.4 km/h 90% 0.0 mm 0 W/m2
05:53 0.8 °C -0.7 °C 1017.3 hPa WSW 17.7 km/h 17.7 km/h 90% 0.0 mm 0 W/m2
05:58 0.7 °C -0.8 °C 1017.3 hPa WNW 7.9 km/h 27.4 km/h 90% 0.0 mm 0 W/m2
06:03 0.7 °C -0.6 °C 1017.3 hPa West 19.5 km/h 25.7 km/h 91% 0.0 mm 0 W/m2
06:08 0.6 °C -0.7 °C 1017.3 hPa WSW 3.2 km/h 16.1 km/h 91% 0.0 mm 0 W/m2
06:13 0.6 °C -0.7 °C 1017.3 hPa West 11.1 km/h 25.7 km/h 91% 0.0 mm 0 W/m2
06:18 0.6 °C -0.7 °C 1017.3 hPa WNW 13 km/h 22.5 km/h 91% 0.0 mm 0 W/m2
06:23 0.6 °C -0.7 °C 1017.6 hPa West 14.3 km/h 19.3 km/h 91% 0.0 mm 0 W/m2
06:28 0.6 °C -0.7 °C 1017.6 hPa WSW 7.9 km/h 20.9 km/h 91% 0.0 mm 0 W/m2
06:33 0.6 °C -0.7 °C 1017.6 hPa WNW 17.7 km/h 17.7 km/h 91% 0.0 mm 0 W/m2
06:38 0.5 °C -0.8 °C 1017.6 hPa WSW 13 km/h 25.7 km/h 91% 0.0 mm 0 W/m2
06:43 0.5 °C -0.8 °C 1017.6 hPa West 11.1 km/h 20.9 km/h 91% 0.0 mm 0 W/m2
06:48 0.4 °C -0.9 °C 1017.6 hPa WNW 16.3 km/h 25.7 km/h 91% 0.0 mm 0 W/m2
06:53 0.4 °C -0.9 °C 1018.0 hPa West 9.7 km/h 20.9 km/h 91% 0.0 mm 0 W/m2
06:59 0.4 °C -0.9 °C 1017.6 hPa NW 13 km/h 16.1 km/h 91% 0.0 mm 0 W/m2
07:04 0.3 °C -1 °C 1018.0 hPa WSW 7.9 km/h 14.5 km/h 91% 0.0 mm 0 W/m2
07:09 0.3 °C -1 °C 1018.0 hPa West 9.7 km/h 17.7 km/h 91% 0.0 mm 0 W/m2
07:14 0.3 °C -1 °C 1018.0 hPa WNW 13 km/h 25.7 km/h 91% 0.0 mm 0 W/m2
07:19 0.2 °C -1.1 °C 1018.0 hPa WSW 6.4 km/h 22.5 km/h 91% 0.0 mm 0 W/m2
07:24 0.2 °C -0.9 °C 1018.0 hPa WNW 13 km/h 25.7 km/h 92% 0.0 mm 0 W/m2
07:29 0.2 °C -1.1 °C 1018.0 hPa West 11.1 km/h 17.7 km/h 91% 0.0 mm 0 W/m2
07:34 0.2 °C -1.1 °C 1018.0 hPa West 9.7 km/h 24.1 km/h 91% 0.0 mm 0 W/m2
07:39 0.1 °C -1 °C 1018.3 hPa West 9.7 km/h 14.5 km/h 92% 0.0 mm 0 W/m2
07:44 0.1 °C -1 °C 1018.3 hPa West 14.3 km/h 24.1 km/h 92% 0.0 mm 0 W/m2
07:49 0.1 °C -1 °C 1018.3 hPa NW 6.4 km/h 9.7 km/h 92% 0.0 mm 0 W/m2
07:54 0.1 °C -1 °C 1018.3 hPa West 6.4 km/h 24.1 km/h 92% 0.0 mm 0 W/m2
07:59 0.1 °C -1 °C 1018.3 hPa WSW 9.7 km/h 19.3 km/h 92% 0.0 mm 0 W/m2
08:04 0 °C -1.1 °C 1018.6 hPa West 13 km/h 19.3 km/h 92% 0.0 mm 0 W/m2
08:09 0 °C -1.1 °C 1018.3 hPa WNW 17.7 km/h 17.7 km/h 92% 0.0 mm 0 W/m2
08:14 -0.1 °C -1.2 °C 1018.3 hPa West 14.3 km/h 22.5 km/h 92% 0.0 mm 7 W/m2
08:19 -0.1 °C -1.2 °C 1018.6 hPa West 13 km/h 17.7 km/h 92% 0.0 mm 9 W/m2
08:24 -0.1 °C -1.2 °C 1018.6 hPa WNW 6.4 km/h 19.3 km/h 92% 0.0 mm 12 W/m2
08:29 -0.1 °C -1.2 °C 1018.6 hPa WSW 4.7 km/h 14.5 km/h 92% 0.0 mm 16 W/m2
08:34 -0.1 °C -1.2 °C 1018.6 hPa WNW 11.1 km/h 19.3 km/h 92% 0.0 mm 21 W/m2
08:39 -0.2 °C -1.3 °C 1018.6 hPa West 4.7 km/h 16.1 km/h 92% 0.0 mm 25 W/m2
08:44 -0.1 °C -1.2 °C 1019.0 hPa WSW 16.3 km/h 17.7 km/h 92% 0.0 mm 30 W/m2
08:49 -0.1 °C -1.2 °C 1019.0 hPa WNW 4.7 km/h 16.1 km/h 92% 0.0 mm 35 W/m2
08:54 -0.1 °C -1.2 °C 1019.0 hPa WNW 9.7 km/h 17.7 km/h 92% 0.0 mm 46 W/m2
08:59 -0.1 °C -1.2 °C 1019.0 hPa NNW 7.9 km/h 17.7 km/h 92% 0.0 mm 53 W/m2
09:04 0 °C -1.1 °C 1019.0 hPa NW 17.7 km/h 19.3 km/h 92% 0.0 mm 58 W/m2
09:09 0 °C -1.1 °C 1019.0 hPa WNW 6.4 km/h 17.7 km/h 92% 0.0 mm 62 W/m2
09:14 0.1 °C -1 °C 1019.0 hPa WNW 6.4 km/h 14.5 km/h 92% 0.0 mm 65 W/m2
09:19 0.1 °C -1 °C 1019.0 hPa WNW 3.2 km/h 16.1 km/h 92% 0.0 mm 67 W/m2
09:24 0.2 °C -1.1 °C 1019.3 hPa West 6.4 km/h 16.1 km/h 91% 0.0 mm 74 W/m2
09:29 0.2 °C -1.1 °C 1019.3 hPa SW 6.4 km/h 19.3 km/h 91% 0.0 mm 81 W/m2
09:34 0.2 °C -0.9 °C 1019.3 hPa West 11.1 km/h 17.7 km/h 92% 0.0 mm 84 W/m2
09:39 0.2 °C -1.1 °C 1019.3 hPa West 13 km/h 20.9 km/h 91% 0.0 mm 79 W/m2
09:44 0.3 °C -1 °C 1019.3 hPa WNW 13 km/h 19.3 km/h 91% 0.0 mm 76 W/m2
09:49 0.3 °C -1 °C 1019.3 hPa SSW 16.3 km/h 22.5 km/h 91% 0.0 mm 79 W/m2
09:54 0.3 °C -1 °C 1019.6 hPa WNW 11.1 km/h 24.1 km/h 91% 0.0 mm 81 W/m2
09:59 0.3 °C -1 °C 1019.6 hPa West 6.4 km/h 16.1 km/h 91% 0.0 mm 86 W/m2
10:04 0.3 °C -1 °C 1019.6 hPa West 9.7 km/h 20.9 km/h 91% 0.0 mm 95 W/m2
10:09 0.4 °C -0.9 °C 1019.3 hPa West 6.4 km/h 16.1 km/h 91% 0.0 mm 95 W/m2
10:14 0.4 °C -0.9 °C 1019.6 hPa WNW 16.3 km/h 16.1 km/h 91% 0.0 mm 120 W/m2
10:19 0.5 °C -0.8 °C 1019.6 hPa WSW 7.9 km/h 20.9 km/h 91% 0.0 mm 123 W/m2
10:24 0.6 °C -0.7 °C 1019.3 hPa West 11.1 km/h 19.3 km/h 91% 0.0 mm 130 W/m2
Juneau County Weather
Compliments of Weather Underground - 2 mb